createdAt,value
2016-12-02T00:00:16.479Z,0
2016-12-02T00:01:17.080Z,0
2016-12-02T00:02:16.146Z,0
2016-12-02T00:03:16.266Z,0
2016-12-02T00:04:15.456Z,0
2016-12-02T00:05:16.431Z,0
2016-12-02T00:06:15.711Z,0
2016-12-02T00:07:16.637Z,0
2016-12-02T00:08:16.992Z,0
2016-12-02T00:09:15.793Z,0
2016-12-02T00:10:16.438Z,0
2016-12-02T00:11:17.155Z,0
2016-12-02T00:12:16.719Z,0
2016-12-02T00:13:16.543Z,0
2016-12-02T00:14:16.985Z,0
2016-12-02T00:15:16.390Z,0
2016-12-02T00:16:16.656Z,0
2016-12-02T00:17:16.548Z,0
2016-12-02T00:18:15.746Z,0
2016-12-02T00:19:16.782Z,0
2016-12-02T00:20:16.340Z,0
2016-12-02T00:21:16.675Z,0
2016-12-02T00:22:16.521Z,0
2016-12-02T00:23:16.731Z,0
2016-12-02T00:24:16.226Z,0
2016-12-02T00:25:16.530Z,0
2016-12-02T00:26:16.522Z,0
2016-12-02T00:27:15.800Z,0
2016-12-02T00:28:16.416Z,0
2016-12-02T00:29:16.910Z,0
2016-12-02T00:30:16.320Z,0
2016-12-02T00:31:16.188Z,0
2016-12-02T00:32:16.778Z,0
2016-12-02T00:33:16.765Z,0
2016-12-02T00:34:17.376Z,0
2016-12-02T00:35:16.647Z,0
2016-12-02T00:36:16.586Z,0
2016-12-02T00:37:17.129Z,0
2016-12-02T00:38:17.682Z,0
2016-12-02T00:39:17.232Z,0
2016-12-02T00:40:15.980Z,0
2016-12-02T00:41:17.101Z,0
2016-12-02T00:42:17.193Z,0
2016-12-02T00:43:17.094Z,0
2016-12-02T00:44:17.467Z,0
2016-12-02T00:45:17.408Z,0
2016-12-02T00:46:16.261Z,0
2016-12-02T00:47:16.331Z,0
2016-12-02T00:48:16.503Z,0
2016-12-02T00:49:16.191Z,0
2016-12-02T00:50:17.226Z,0
2016-12-02T00:51:17.523Z,0
2016-12-02T00:52:17.992Z,0
2016-12-02T00:53:16.081Z,0
2016-12-02T00:54:16.742Z,0
2016-12-02T00:55:17.339Z,0
2016-12-02T00:56:17.899Z,0
2016-12-02T00:57:16.921Z,0
2016-12-02T00:58:17.488Z,0
2016-12-02T00:59:16.676Z,0
2016-12-02T01:00:16.468Z,0
2016-12-02T01:01:16.104Z,0
2016-12-02T01:02:17.308Z,0
2016-12-02T01:03:16.981Z,0
2016-12-02T01:04:16.492Z,0
2016-12-02T01:05:16.587Z,0
2016-12-02T01:06:17.228Z,0
2016-12-02T01:07:17.057Z,0
2016-12-02T01:08:17.878Z,0
2016-12-02T01:09:18.038Z,0
2016-12-02T01:10:16.844Z,0
2016-12-02T01:11:17.419Z,0
2016-12-02T01:12:18.527Z,0
2016-12-02T01:13:17.168Z,0
2016-12-02T01:14:16.959Z,0
2016-12-02T01:15:18.343Z,0
2016-12-02T01:16:17.278Z,0
2016-12-02T01:17:17.471Z,0
2016-12-02T01:18:17.717Z,0
2016-12-02T01:19:16.934Z,0
2016-12-02T01:20:17.608Z,0
2016-12-02T01:21:17.899Z,0
2016-12-02T01:22:17.695Z,0
2016-12-02T01:23:17.468Z,0
2016-12-02T01:24:16.825Z,0
2016-12-02T01:25:18.645Z,0
2016-12-02T01:26:18.565Z,0
2016-12-02T01:27:17.736Z,0
2016-12-02T01:28:17.246Z,0
2016-12-02T01:29:17.973Z,0
2016-12-02T01:30:17.568Z,0
2016-12-02T01:31:17.984Z,0
2016-12-02T01:32:16.979Z,0
2016-12-02T01:33:17.229Z,0
2016-12-02T01:34:17.611Z,0
2016-12-02T01:35:17.890Z,0
2016-12-02T01:36:17.736Z,0
2016-12-02T01:37:17.325Z,0
2016-12-02T01:38:17.638Z,0
2016-12-02T01:39:17.627Z,0
2016-12-02T01:40:18.712Z,0
2016-12-02T01:41:18.276Z,0
2016-12-02T01:42:17.561Z,0
2016-12-02T01:43:17.635Z,0
2016-12-02T01:44:17.904Z,0
2016-12-02T01:45:17.771Z,0
2016-12-02T01:46:17.454Z,0
2016-12-02T01:47:18.511Z,0
2016-12-02T01:48:19.048Z,0
2016-12-02T01:49:17.348Z,0
2016-12-02T01:50:18.176Z,0
2016-12-02T01:51:17.472Z,0
2016-12-02T01:52:17.450Z,0
2016-12-02T01:53:17.812Z,0
2016-12-02T01:54:19.248Z,0
2016-12-02T01:55:17.627Z,0
2016-12-02T01:56:17.858Z,0
2016-12-02T01:57:18.382Z,0
2016-12-02T01:58:19.321Z,0
2016-12-02T01:59:18.290Z,0
2016-12-02T02:00:17.549Z,0
2016-12-02T02:01:17.434Z,0
2016-12-02T02:02:18.612Z,0
2016-12-02T02:03:18.935Z,0
2016-12-02T02:04:17.807Z,0
2016-12-02T02:05:17.284Z,0
2016-12-02T02:06:17.442Z,0
2016-12-02T02:07:18.491Z,0
2016-12-02T02:08:18.148Z,0
2016-12-02T02:09:17.765Z,0
2016-12-02T02:10:18.388Z,0
2016-12-02T02:11:17.588Z,0
2016-12-02T02:12:18.323Z,0
2016-12-02T02:13:18.734Z,0
2016-12-02T02:14:18.296Z,0
2016-12-02T02:15:18.664Z,0
2016-12-02T02:16:18.944Z,0
2016-12-02T02:17:19.445Z,0
2016-12-02T02:18:17.912Z,0
2016-12-02T02:19:18.016Z,0
2016-12-02T02:20:18.637Z,0
2016-12-02T02:21:17.931Z,0
2016-12-02T02:22:18.557Z,0
2016-12-02T02:23:19.120Z,0
2016-12-02T02:24:18.840Z,0
2016-12-02T02:25:18.627Z,0
2016-12-02T02:26:18.002Z,0
2016-12-02T02:27:18.401Z,0
2016-12-02T02:28:18.026Z,0
2016-12-02T02:29:18.923Z,0
2016-12-02T02:30:18.558Z,0
2016-12-02T02:31:19.026Z,0
2016-12-02T02:32:18.066Z,0
2016-12-02T02:33:19.214Z,0
2016-12-02T02:34:19.770Z,0
2016-12-02T02:35:18.961Z,0
2016-12-02T02:36:18.263Z,0
2016-12-02T02:37:18.615Z,0
2016-12-02T02:38:19.237Z,0
2016-12-02T02:39:18.848Z,0
2016-12-02T02:40:18.234Z,0
2016-12-02T02:41:18.995Z,0
2016-12-02T02:42:19.680Z,0
2016-12-02T02:43:18.633Z,0
2016-12-02T02:44:19.343Z,0
2016-12-02T02:45:18.307Z,0
2016-12-02T02:46:19.337Z,0
2016-12-02T02:47:18.847Z,0
2016-12-02T02:48:18.950Z,0
2016-12-02T02:49:18.851Z,0
2016-12-02T02:50:18.484Z,0
2016-12-02T02:51:19.318Z,0
2016-12-02T02:52:18.921Z,0
2016-12-02T02:53:18.166Z,0
2016-12-02T02:54:18.737Z,0
2016-12-02T02:55:20.421Z,0
2016-12-02T02:56:19.283Z,0
2016-12-02T02:57:18.302Z,0
2016-12-02T02:58:18.798Z,0
2016-12-02T02:59:19.535Z,0
2016-12-02T03:00:19.340Z,0
2016-12-02T03:01:18.807Z,0
2016-12-02T03:02:18.747Z,0
2016-12-02T03:03:19.387Z,0
2016-12-02T03:04:18.606Z,0
2016-12-02T03:05:19.509Z,0
2016-12-02T03:06:18.902Z,0
2016-12-02T03:07:19.429Z,0
2016-12-02T03:08:19.139Z,0
2016-12-02T03:09:18.715Z,0
2016-12-02T03:10:19.348Z,0
2016-12-02T03:11:19.117Z,0
2016-12-02T03:12:18.680Z,0
2016-12-02T03:13:19.069Z,0
2016-12-02T03:14:18.692Z,0
2016-12-02T03:15:19.450Z,0
2016-12-02T03:16:19.063Z,0
2016-12-02T03:17:19.308Z,0
2016-12-02T03:18:19.320Z,0
2016-12-02T03:19:19.002Z,0
2016-12-02T03:20:18.822Z,0
2016-12-02T03:21:19.008Z,0
2016-12-02T03:22:19.296Z,0
2016-12-02T03:23:19.385Z,0
2016-12-02T03:24:19.013Z,0
2016-12-02T03:25:18.940Z,0
2016-12-02T03:26:19.057Z,0
2016-12-02T03:27:18.875Z,0
2016-12-02T03:28:19.277Z,0
2016-12-02T03:29:18.928Z,0
2016-12-02T03:30:18.777Z,0
2016-12-02T03:31:19.800Z,0
2016-12-02T03:32:19.182Z,0
2016-12-02T03:33:19.685Z,0
2016-12-02T03:34:19.893Z,0
2016-12-02T03:35:18.718Z,0
2016-12-02T03:36:19.168Z,0
2016-12-02T03:37:19.808Z,0
2016-12-02T03:38:19.830Z,0
2016-12-02T03:39:18.790Z,0
2016-12-02T03:40:20.199Z,0
2016-12-02T03:41:19.180Z,0
2016-12-02T03:42:18.977Z,0
2016-12-02T03:43:19.854Z,0
2016-12-02T03:44:19.563Z,0
2016-12-02T03:45:20.530Z,0
2016-12-02T03:46:18.957Z,0
2016-12-02T03:47:19.283Z,0
2016-12-02T03:48:19.490Z,0
2016-12-02T03:49:19.630Z,0
2016-12-02T03:50:19.716Z,0
2016-12-02T03:51:19.480Z,0
2016-12-02T03:52:19.550Z,0
2016-12-02T03:53:19.941Z,0
2016-12-02T03:54:19.621Z,0
2016-12-02T03:55:19.210Z,0
2016-12-02T03:56:19.436Z,0
2016-12-02T03:57:20.104Z,0
2016-12-02T03:58:19.641Z,0
2016-12-02T03:59:20.461Z,0
2016-12-02T04:00:19.154Z,0
2016-12-02T04:01:19.964Z,0
2016-12-02T04:02:19.308Z,0
2016-12-02T04:03:20.369Z,0
2016-12-02T04:04:19.121Z,0
2016-12-02T04:05:19.455Z,0
2016-12-02T04:06:20.072Z,0
2016-12-02T04:07:19.295Z,0
2016-12-02T04:08:19.975Z,0
2016-12-02T04:09:19.286Z,0
2016-12-02T04:10:20.242Z,0
2016-12-02T04:11:19.892Z,0
2016-12-02T04:12:19.856Z,0
2016-12-02T04:13:20.081Z,0
2016-12-02T04:14:19.848Z,0
2016-12-02T04:15:19.829Z,0
2016-12-02T04:16:19.607Z,0
2016-12-02T04:17:19.781Z,0
2016-12-02T04:18:19.611Z,0
2016-12-02T04:19:19.544Z,0
2016-12-02T04:20:19.950Z,0
2016-12-02T04:21:20.233Z,0
2016-12-02T04:22:20.134Z,0
2016-12-02T04:23:21.501Z,0
2016-12-02T04:24:20.229Z,0
2016-12-02T04:25:20.649Z,0
2016-12-02T04:26:20.753Z,0
2016-12-02T04:27:20.594Z,0
2016-12-02T04:28:20.108Z,0
2016-12-02T04:29:20.583Z,0
2016-12-02T04:30:20.183Z,0
2016-12-02T04:31:19.836Z,0
2016-12-02T04:32:21.223Z,0
2016-12-02T04:33:20.034Z,0
2016-12-02T04:34:19.966Z,0
2016-12-02T04:35:20.205Z,0
2016-12-02T04:36:20.777Z,0
2016-12-02T04:37:20.115Z,0
2016-12-02T04:38:20.172Z,0
2016-12-02T04:39:20.386Z,0
2016-12-02T04:40:20.588Z,0
2016-12-02T04:41:20.893Z,0
2016-12-02T04:42:20.240Z,0
2016-12-02T04:43:20.492Z,0
2016-12-02T04:44:21.055Z,0
2016-12-02T04:45:21.471Z,0
2016-12-02T04:46:20.170Z,0
2016-12-02T04:47:21.563Z,0
2016-12-02T04:48:20.483Z,0
2016-12-02T04:49:21.037Z,0
2016-12-02T04:50:20.234Z,0
2016-12-02T04:51:21.369Z,0
2016-12-02T04:52:21.178Z,0
2016-12-02T04:53:20.239Z,0
2016-12-02T04:54:21.126Z,0
2016-12-02T04:55:20.568Z,0
2016-12-02T04:56:22.219Z,0
2016-12-02T04:57:20.932Z,0
2016-12-02T04:58:21.266Z,0
2016-12-02T04:59:20.659Z,0
2016-12-02T05:00:21.082Z,0
2016-12-02T05:01:21.053Z,0
2016-12-02T05:02:21.350Z,0
2016-12-02T05:03:20.509Z,0
2016-12-02T05:04:20.751Z,0
2016-12-02T05:05:21.782Z,0
2016-12-02T05:06:20.487Z,0
2016-12-02T05:07:20.207Z,0
2016-12-02T05:08:20.702Z,0
2016-12-02T05:09:21.282Z,0
2016-12-02T05:10:21.788Z,0
2016-12-02T05:11:21.176Z,0
2016-12-02T05:12:21.415Z,0
2016-12-02T05:13:23.377Z,0
2016-12-02T05:14:21.790Z,0
2016-12-02T05:15:21.229Z,0
2016-12-02T05:16:22.273Z,0
2016-12-02T05:17:21.759Z,0
2016-12-02T05:18:22.641Z,0
2016-12-02T05:19:21.652Z,0
2016-12-02T05:20:22.180Z,0
2016-12-02T05:21:21.318Z,0
2016-12-02T05:22:21.903Z,0
2016-12-02T05:23:22.012Z,0
2016-12-02T05:24:21.684Z,0
2016-12-02T05:25:21.808Z,0
2016-12-02T05:26:21.416Z,0
2016-12-02T05:27:20.991Z,0
2016-12-02T05:28:21.659Z,0
2016-12-02T05:29:22.065Z,0
2016-12-02T05:30:22.042Z,0
2016-12-02T05:31:21.922Z,0
2016-12-02T05:32:22.177Z,0
2016-12-02T05:33:21.130Z,0
2016-12-02T05:34:22.096Z,0
2016-12-02T05:35:21.122Z,0
2016-12-02T05:36:21.545Z,0
2016-12-02T05:37:22.144Z,0
2016-12-02T05:38:21.586Z,0
2016-12-02T05:39:21.578Z,0
2016-12-02T05:40:22.353Z,0
2016-12-02T05:41:22.484Z,0
2016-12-02T05:42:21.974Z,0
2016-12-02T05:43:22.320Z,0
2016-12-02T05:44:21.663Z,0
2016-12-02T05:45:22.100Z,0
2016-12-02T05:46:21.999Z,0
2016-12-02T05:47:20.842Z,0
2016-12-02T05:48:21.973Z,0
2016-12-02T05:49:21.933Z,0
2016-12-02T05:50:23.416Z,0
2016-12-02T05:51:22.685Z,0
2016-12-02T05:52:21.497Z,0
2016-12-02T05:53:22.920Z,0
2016-12-02T05:54:21.324Z,0
2016-12-02T05:55:22.934Z,0
2016-12-02T05:56:22.190Z,0
2016-12-02T05:57:23.327Z,0
2016-12-02T05:58:21.301Z,0
2016-12-02T05:59:22.514Z,0
2016-12-02T06:00:21.675Z,0
2016-12-02T06:01:23.074Z,0
2016-12-02T06:02:21.824Z,0
2016-12-02T06:03:22.809Z,0
2016-12-02T06:04:21.964Z,0
2016-12-02T06:05:22.559Z,0
2016-12-02T06:06:23.786Z,0
2016-12-02T06:07:22.187Z,0
2016-12-02T06:08:21.756Z,0
2016-12-02T06:09:22.355Z,0
2016-12-02T06:10:21.649Z,0
2016-12-02T06:11:21.793Z,0
2016-12-02T06:12:22.091Z,0
2016-12-02T06:13:22.140Z,0
2016-12-02T06:14:22.755Z,0
2016-12-02T06:15:22.795Z,0
2016-12-02T06:16:22.829Z,0
2016-12-02T06:17:23.416Z,0
2016-12-02T06:18:21.880Z,0
2016-12-02T06:19:22.886Z,0
2016-12-02T06:20:22.104Z,0
2016-12-02T06:21:22.457Z,0
2016-12-02T06:22:21.793Z,0
2016-12-02T06:23:22.407Z,0
2016-12-02T06:24:22.148Z,0
2016-12-02T06:25:22.014Z,0
2016-12-02T06:26:22.215Z,0
2016-12-02T06:27:22.378Z,0
2016-12-02T06:28:21.932Z,0
2016-12-02T06:29:22.954Z,0
2016-12-02T06:30:24.272Z,0
2016-12-02T06:31:21.806Z,0
2016-12-02T06:32:23.502Z,0
2016-12-02T06:33:22.298Z,0
2016-12-02T06:34:23.332Z,0
2016-12-02T06:35:22.738Z,0
2016-12-02T06:36:22.430Z,0
2016-12-02T06:41:28.666Z,0
2016-12-02T06:42:30.935Z,0
2016-12-02T06:43:28.321Z,0
2016-12-02T06:44:26.231Z,0
2016-12-02T06:45:27.273Z,0
2016-12-02T06:46:25.957Z,0
2016-12-02T06:47:30.394Z,0
2016-12-02T06:48:28.822Z,0
2016-12-02T06:49:30.169Z,0
2016-12-02T06:50:31.191Z,0
2016-12-02T06:51:27.729Z,0
2016-12-02T06:52:29.420Z,0
2016-12-02T06:53:29.554Z,0
2016-12-02T06:54:27.072Z,0
2016-12-02T06:55:26.903Z,0
2016-12-02T06:56:22.475Z,0
2016-12-02T06:57:23.135Z,5
2016-12-02T06:58:23.463Z,5
2016-12-02T06:59:23.437Z,5
2016-12-02T07:00:23.559Z,5
2016-12-02T07:01:22.642Z,5
2016-12-02T07:02:22.074Z,5
2016-12-02T07:03:23.063Z,5
2016-12-02T07:04:22.130Z,5
2016-12-02T07:05:22.897Z,5
2016-12-02T07:06:22.653Z,10
2016-12-02T07:07:23.309Z,5
2016-12-02T07:08:23.558Z,5
2016-12-02T07:09:22.863Z,5
2016-12-02T07:10:23.201Z,5
2016-12-02T07:11:23.669Z,5
2016-12-02T07:12:23.496Z,5
2016-12-02T07:13:23.694Z,5
2016-12-02T07:14:23.512Z,5
2016-12-02T07:15:26.071Z,10
2016-12-02T07:16:26.100Z,10
2016-12-02T07:17:23.771Z,5
2016-12-02T07:18:25.487Z,5
2016-12-02T07:19:26.098Z,10
2016-12-02T07:20:25.489Z,10
2016-12-02T07:21:25.742Z,10
2016-12-02T07:22:25.179Z,10
2016-12-02T07:23:23.314Z,10
2016-12-02T07:24:24.593Z,15
2016-12-02T07:25:23.547Z,15
2016-12-02T07:26:24.613Z,15
2016-12-02T07:27:23.610Z,15
2016-12-02T07:28:23.314Z,20
2016-12-02T07:29:25.674Z,25
2016-12-02T07:30:24.310Z,30
2016-12-02T07:31:23.765Z,25
2016-12-02T07:32:24.083Z,25
2016-12-02T07:33:24.147Z,25
2016-12-02T07:34:24.493Z,35
2016-12-02T07:35:24.890Z,45
2016-12-02T07:36:24.087Z,55
2016-12-02T07:37:24.402Z,65
2016-12-02T07:38:24.395Z,60
2016-12-02T07:39:24.918Z,50
2016-12-02T07:40:24.006Z,45
2016-12-02T07:41:24.693Z,50
2016-12-02T07:42:24.155Z,60
2016-12-02T07:43:24.916Z,65
2016-12-02T07:44:23.976Z,70
2016-12-02T07:45:24.354Z,70
2016-12-02T07:46:24.572Z,60
2016-12-02T07:47:25.350Z,60
2016-12-02T07:48:23.618Z,55
2016-12-02T07:49:23.919Z,45
2016-12-02T07:50:24.280Z,50
2016-12-02T07:51:24.296Z,50
2016-12-02T07:52:24.566Z,55
2016-12-02T07:53:25.280Z,60
2016-12-02T07:54:24.695Z,60
2016-12-02T07:55:24.252Z,60
2016-12-02T07:56:23.665Z,60
2016-12-02T07:57:25.293Z,75
2016-12-02T07:58:24.022Z,85
2016-12-02T07:59:23.737Z,95
2016-12-02T08:00:24.011Z,95
2016-12-02T08:01:25.039Z,85
2016-12-02T08:02:24.132Z,70
2016-12-02T08:03:24.815Z,65
2016-12-02T08:04:23.423Z,70
2016-12-02T08:05:24.779Z,50
2016-12-02T08:06:23.921Z,45
2016-12-02T08:07:23.537Z,50
2016-12-02T08:08:23.133Z,65
2016-12-02T08:09:23.559Z,80
2016-12-02T08:10:24.110Z,80
2016-12-02T08:11:23.707Z,75
2016-12-02T08:12:22.729Z,80
2016-12-02T08:13:23.479Z,90
2016-12-02T08:14:23.692Z,95
2016-12-02T08:15:23.468Z,110
2016-12-02T08:16:23.443Z,125
2016-12-02T08:17:23.156Z,125
2016-12-02T08:18:23.457Z,120
2016-12-02T08:19:23.977Z,115
2016-12-02T08:20:23.575Z,115
2016-12-02T08:21:23.378Z,115
2016-12-02T08:22:23.261Z,125
2016-12-02T08:23:24.373Z,125
2016-12-02T08:24:24.159Z,130
2016-12-02T08:25:24.120Z,125
2016-12-02T08:26:24.265Z,115
2016-12-02T08:27:24.227Z,110
2016-12-02T08:28:23.734Z,110
2016-12-02T08:29:23.757Z,110
2016-12-02T08:30:23.664Z,120
2016-12-02T08:31:24.143Z,125
2016-12-02T08:32:31.814Z,140
2016-12-02T08:33:23.438Z,145
2016-12-02T08:34:24.280Z,160
2016-12-02T08:35:23.988Z,180
2016-12-02T08:36:25.383Z,180
2016-12-02T08:37:23.570Z,185
2016-12-02T08:38:24.655Z,190
2016-12-02T08:39:23.825Z,190
2016-12-02T08:40:25.171Z,195
2016-12-02T08:41:23.639Z,200
2016-12-02T08:42:23.371Z,210
2016-12-02T08:43:23.785Z,205
2016-12-02T08:44:23.752Z,200
2016-12-02T08:45:23.804Z,210
2016-12-02T08:46:24.366Z,210
2016-12-02T08:47:24.411Z,205
2016-12-02T08:48:24.256Z,205
2016-12-02T08:49:23.895Z,205
2016-12-02T08:50:23.336Z,215
2016-12-02T08:51:24.791Z,220
2016-12-02T08:52:26.263Z,215
2016-12-02T08:53:24.002Z,210
2016-12-02T08:54:23.579Z,215
2016-12-02T08:55:23.408Z,215
2016-12-02T08:56:24.659Z,210
2016-12-02T08:57:25.059Z,210
2016-12-02T08:58:23.740Z,225
2016-12-02T08:59:24.214Z,225
2016-12-02T09:00:24.546Z,210
2016-12-02T09:01:25.268Z,195
2016-12-02T09:02:24.133Z,205
2016-12-02T09:03:24.214Z,205
2016-12-02T09:04:24.372Z,205
2016-12-02T09:05:25.541Z,210
2016-12-02T09:06:24.681Z,205
2016-12-02T09:07:25.417Z,210
2016-12-02T09:08:24.342Z,215
2016-12-02T09:09:25.086Z,210
2016-12-02T09:10:23.823Z,210
2016-12-02T09:11:24.475Z,220
2016-12-02T09:12:24.292Z,220
2016-12-02T09:13:24.430Z,220
2016-12-02T09:14:25.051Z,205
2016-12-02T09:15:25.498Z,195
2016-12-02T09:16:25.008Z,195
2016-12-02T09:17:24.254Z,190
2016-12-02T09:18:24.906Z,190
2016-12-02T09:19:24.752Z,190
2016-12-02T09:20:25.543Z,195
2016-12-02T09:21:25.389Z,195
2016-12-02T09:22:25.142Z,200
2016-12-02T09:23:25.145Z,210
2016-12-02T09:24:26.126Z,210
2016-12-02T09:25:25.392Z,230
2016-12-02T09:26:24.951Z,230
2016-12-02T09:27:25.994Z,230
2016-12-02T09:28:24.916Z,235
2016-12-02T09:29:24.875Z,235
2016-12-02T09:30:25.552Z,235
2016-12-02T09:31:26.838Z,235
2016-12-02T09:32:25.460Z,235
2016-12-02T09:33:26.619Z,235
2016-12-02T09:34:25.072Z,235
2016-12-02T09:35:25.754Z,235
2016-12-02T09:36:24.926Z,235
2016-12-02T09:37:25.241Z,235
2016-12-02T09:38:25.757Z,235
2016-12-02T09:39:25.383Z,235
2016-12-02T09:40:24.830Z,245
2016-12-02T09:41:25.142Z,240
2016-12-02T09:42:25.563Z,240
2016-12-02T09:43:26.031Z,240
2016-12-02T09:44:26.027Z,240
2016-12-02T09:45:25.509Z,240
2016-12-02T09:46:25.295Z,245
2016-12-02T09:47:25.130Z,245
2016-12-02T09:48:25.687Z,245
2016-12-02T09:49:25.147Z,245
2016-12-02T09:50:26.265Z,245
2016-12-02T09:51:25.435Z,245
2016-12-02T09:52:25.362Z,245
2016-12-02T09:53:25.607Z,245
2016-12-02T09:54:25.558Z,245
2016-12-02T09:55:26.895Z,245
2016-12-02T09:56:25.189Z,245
2016-12-02T09:57:25.612Z,245
2016-12-02T09:58:24.940Z,245
2016-12-02T09:59:26.394Z,245
2016-12-02T10:00:26.405Z,245
2016-12-02T10:01:25.102Z,245
2016-12-02T10:02:25.489Z,250
2016-12-02T10:03:25.790Z,245
2016-12-02T10:04:25.479Z,245
2016-12-02T10:05:25.582Z,250
2016-12-02T10:06:25.749Z,245
2016-12-02T10:07:25.484Z,250
2016-12-02T10:08:25.559Z,250
2016-12-02T10:09:25.737Z,250
2016-12-02T10:10:26.452Z,250
2016-12-02T10:11:24.806Z,250
2016-12-02T10:12:25.763Z,250
2016-12-02T10:13:25.405Z,250
2016-12-02T10:14:25.768Z,250
2016-12-02T10:15:26.432Z,255
2016-12-02T10:16:26.229Z,255
2016-12-02T10:17:24.854Z,250
2016-12-02T10:18:25.601Z,255
2016-12-02T10:19:26.192Z,255
2016-12-02T10:20:25.485Z,255
2016-12-02T10:21:26.080Z,260
2016-12-02T10:22:25.844Z,270
2016-12-02T10:23:25.977Z,270
2016-12-02T10:24:26.243Z,285
2016-12-02T10:25:26.502Z,270
2016-12-02T10:26:26.526Z,260
2016-12-02T10:27:26.263Z,250
2016-12-02T10:28:26.153Z,255
2016-12-02T10:29:25.597Z,260
2016-12-02T10:30:26.323Z,260
2016-12-02T10:31:25.864Z,255
2016-12-02T10:32:25.710Z,260
2016-12-02T10:33:25.373Z,260
2016-12-02T10:34:26.263Z,265
2016-12-02T10:35:26.316Z,260
2016-12-02T10:36:25.663Z,255
2016-12-02T10:37:27.137Z,265
2016-12-02T10:38:25.995Z,280
2016-12-02T10:39:26.574Z,290
2016-12-02T10:40:26.242Z,295
2016-12-02T10:41:26.874Z,285
2016-12-02T10:42:26.087Z,275
2016-12-02T10:43:25.661Z,285
2016-12-02T10:44:26.241Z,295
2016-12-02T10:45:25.877Z,290
2016-12-02T10:46:26.561Z,290
2016-12-02T10:47:27.359Z,295
2016-12-02T10:48:26.899Z,290
2016-12-02T10:49:25.890Z,285
2016-12-02T10:50:26.276Z,285
2016-12-02T10:51:26.450Z,280
2016-12-02T10:52:25.848Z,280
2016-12-02T10:53:26.109Z,280
2016-12-02T10:54:26.008Z,280
2016-12-02T10:55:27.669Z,280
2016-12-02T10:56:26.097Z,285
2016-12-02T10:57:26.485Z,290
2016-12-02T10:58:26.789Z,300
2016-12-02T10:59:27.183Z,305
2016-12-02T11:00:26.787Z,305
2016-12-02T11:01:26.834Z,315
2016-12-02T11:02:27.654Z,300
2016-12-02T11:03:26.828Z,300
2016-12-02T11:04:27.526Z,325
2016-12-02T11:05:26.369Z,330
2016-12-02T11:06:26.826Z,305
2016-12-02T11:07:26.666Z,285
2016-12-02T11:08:26.590Z,285
2016-12-02T11:09:26.628Z,290
2016-12-02T11:10:27.331Z,285
2016-12-02T11:11:27.169Z,280
2016-12-02T11:12:26.839Z,280
2016-12-02T11:13:28.565Z,310
2016-12-02T11:14:27.906Z,320
2016-12-02T11:15:26.136Z,305
2016-12-02T11:16:27.285Z,290
2016-12-02T11:17:26.269Z,285
2016-12-02T11:18:27.758Z,285
2016-12-02T11:19:26.739Z,280
2016-12-02T11:20:27.513Z,255
2016-12-02T11:21:27.732Z,260
2016-12-02T11:22:25.875Z,260
2016-12-02T11:23:27.615Z,300
2016-12-02T11:24:27.208Z,295
2016-12-02T11:25:27.654Z,280
2016-12-02T11:26:27.801Z,295
2016-12-02T11:27:26.830Z,300
2016-12-02T11:28:28.517Z,305
2016-12-02T11:29:27.223Z,295
2016-12-02T11:30:27.943Z,305
2016-12-02T11:31:26.582Z,305
2016-12-02T11:32:27.123Z,310
2016-12-02T11:33:26.954Z,300
2016-12-02T11:34:27.614Z,270
2016-12-02T11:35:26.922Z,270
2016-12-02T11:36:27.138Z,275
2016-12-02T11:37:27.553Z,275
2016-12-02T11:38:27.364Z,275
2016-12-02T11:39:26.755Z,275
2016-12-02T11:40:28.383Z,265
2016-12-02T11:41:27.025Z,260
2016-12-02T11:42:27.154Z,255
2016-12-02T11:43:28.590Z,255
2016-12-02T11:44:27.022Z,255
2016-12-02T11:45:28.896Z,255
2016-12-02T11:46:27.583Z,255
2016-12-02T11:47:27.674Z,260
2016-12-02T11:48:27.029Z,260
2016-12-02T11:49:28.612Z,255
2016-12-02T11:50:29.214Z,255
2016-12-02T11:51:27.831Z,255
2016-12-02T11:52:27.514Z,245
2016-12-02T11:53:27.360Z,225
2016-12-02T11:54:27.161Z,255
2016-12-02T11:55:28.505Z,260
2016-12-02T11:56:27.860Z,255
2016-12-02T11:57:27.480Z,250
2016-12-02T11:58:27.934Z,250
2016-12-02T11:59:28.945Z,250
2016-12-02T12:00:28.122Z,250
2016-12-02T12:01:28.245Z,250
2016-12-02T12:02:28.231Z,250
2016-12-02T12:03:27.272Z,245
2016-12-02T12:04:28.284Z,245
2016-12-02T12:05:27.234Z,245
2016-12-02T12:06:28.795Z,245
2016-12-02T12:07:29.247Z,245
2016-12-02T12:08:28.181Z,245
2016-12-02T12:09:28.719Z,245
2016-12-02T12:10:27.933Z,245
2016-12-02T12:11:27.991Z,245
2016-12-02T12:12:27.888Z,240
2016-12-02T12:13:27.464Z,240
2016-12-02T12:14:28.183Z,240
2016-12-02T12:15:28.319Z,240
2016-12-02T12:16:28.232Z,240
2016-12-02T12:17:27.418Z,240
2016-12-02T12:18:28.147Z,240
2016-12-02T12:19:28.543Z,240
2016-12-02T12:20:27.848Z,235
2016-12-02T12:21:28.244Z,235
2016-12-02T12:22:28.630Z,235
2016-12-02T12:23:27.497Z,235
2016-12-02T12:24:28.394Z,240
2016-12-02T12:25:28.067Z,235
2016-12-02T12:26:28.847Z,235
2016-12-02T12:27:28.371Z,235
2016-12-02T12:28:27.732Z,235
2016-12-02T12:29:28.631Z,235
2016-12-02T12:30:28.706Z,235
2016-12-02T12:31:28.865Z,235
2016-12-02T12:32:28.168Z,235
2016-12-02T12:33:27.936Z,235
2016-12-02T12:34:28.258Z,230
2016-12-02T12:35:29.609Z,230
2016-12-02T12:36:29.540Z,230
2016-12-02T12:37:29.049Z,230
2016-12-02T12:38:28.406Z,230
2016-12-02T12:39:29.061Z,230
2016-12-02T12:40:29.040Z,225
2016-12-02T12:41:28.625Z,225
2016-12-02T12:42:28.643Z,225
2016-12-02T12:43:29.660Z,225
2016-12-02T12:44:28.504Z,225
2016-12-02T12:45:28.497Z,225
2016-12-02T12:46:28.623Z,225
2016-12-02T12:47:28.941Z,225
2016-12-02T12:48:28.322Z,225
2016-12-02T12:49:28.373Z,220
2016-12-02T12:50:29.122Z,220
2016-12-02T12:51:28.769Z,220
2016-12-02T12:52:29.273Z,220
2016-12-02T12:53:28.282Z,220
2016-12-02T12:54:30.532Z,220
2016-12-02T12:55:28.676Z,220
2016-12-02T12:56:28.882Z,215
2016-12-02T12:57:29.489Z,215
2016-12-02T12:58:29.035Z,215
2016-12-02T12:59:29.857Z,215
2016-12-02T13:00:29.680Z,215
2016-12-02T13:01:29.461Z,215
2016-12-02T13:02:30.440Z,220
2016-12-02T13:03:29.019Z,215
2016-12-02T13:04:28.799Z,210
2016-12-02T13:05:30.809Z,210
2016-12-02T13:06:29.040Z,210
2016-12-02T13:07:29.873Z,210
2016-12-02T13:08:29.473Z,210
2016-12-02T13:09:29.352Z,210
2016-12-02T13:10:28.800Z,210
2016-12-02T13:11:28.968Z,210
2016-12-02T13:12:29.652Z,205
2016-12-02T13:13:28.811Z,205
2016-12-02T13:14:29.594Z,205
2016-12-02T13:15:29.054Z,205
2016-12-02T13:16:30.016Z,205
2016-12-02T13:17:30.915Z,205
2016-12-02T13:18:29.885Z,200
2016-12-02T13:19:29.690Z,200
2016-12-02T13:20:29.411Z,200
2016-12-02T13:21:30.345Z,200
2016-12-02T13:22:29.548Z,195
2016-12-02T13:23:30.130Z,195
2016-12-02T13:24:29.967Z,195
2016-12-02T13:25:29.822Z,195
2016-12-02T13:26:29.135Z,195
2016-12-02T13:27:30.124Z,190
2016-12-02T13:28:29.493Z,190
2016-12-02T13:29:29.284Z,190
2016-12-02T13:30:29.945Z,190
2016-12-02T13:31:31.598Z,185
2016-12-02T13:32:29.494Z,185
2016-12-02T13:33:30.241Z,185
2016-12-02T13:34:30.547Z,185
2016-12-02T13:35:30.456Z,180
2016-12-02T13:36:29.523Z,180
2016-12-02T13:37:29.504Z,180
2016-12-02T13:38:29.215Z,180
2016-12-02T13:39:30.740Z,175
2016-12-02T13:40:29.175Z,175
2016-12-02T13:41:29.631Z,175
2016-12-02T13:42:29.602Z,175
2016-12-02T13:43:31.477Z,170
2016-12-02T13:44:31.040Z,170
2016-12-02T13:45:30.166Z,170
2016-12-02T13:46:29.479Z,170
2016-12-02T13:47:29.760Z,165
2016-12-02T13:48:30.776Z,165
2016-12-02T13:49:30.354Z,165
2016-12-02T13:50:29.713Z,165
2016-12-02T13:51:30.298Z,160
2016-12-02T13:52:30.296Z,160
2016-12-02T13:53:30.245Z,155
2016-12-02T13:54:29.826Z,155
2016-12-02T13:55:30.835Z,150
2016-12-02T13:56:30.271Z,145
2016-12-02T13:57:31.022Z,145
2016-12-02T13:58:30.996Z,145
2016-12-02T13:59:30.785Z,140
2016-12-02T14:00:30.813Z,140
2016-12-02T14:01:30.516Z,140
2016-12-02T14:02:30.244Z,140
2016-12-02T14:03:30.004Z,135
2016-12-02T14:04:29.994Z,135
2016-12-02T14:05:29.383Z,135
2016-12-02T14:06:30.736Z,135
2016-12-02T14:07:30.549Z,130
2016-12-02T14:08:29.976Z,130
2016-12-02T14:09:30.424Z,130
2016-12-02T14:10:30.720Z,130
2016-12-02T14:11:30.558Z,125
2016-12-02T14:12:29.872Z,125
2016-12-02T14:13:30.982Z,125
2016-12-02T14:14:30.275Z,120
2016-12-02T14:15:30.874Z,120
2016-12-02T14:16:33.236Z,120
2016-12-02T14:17:30.327Z,120
2016-12-02T14:18:31.153Z,115
2016-12-02T14:19:31.867Z,115
2016-12-02T14:20:30.235Z,115
2016-12-02T14:21:32.063Z,110